sensor_id;sensor_type;location;lat;lon;timestamp;temperature;humidity
70368;DHT22;57789;53.868;10.728;2023-06-22T00:02:16;18.80;99.90
70368;DHT22;57789;53.868;10.728;2023-06-22T00:04:43;18.80;99.90
70368;DHT22;57789;53.868;10.728;2023-06-22T00:07:09;18.60;99.90
70368;DHT22;57789;53.868;10.728;2023-06-22T00:09:35;18.30;99.90
70368;DHT22;57789;53.868;10.728;2023-06-22T00:12:01;18.10;99.90
70368;DHT22;57789;53.868;10.728;2023-06-22T00:14:27;17.90;99.90
70368;DHT22;57789;53.868;10.728;2023-06-22T00:16:52;17.70;99.90
70368;DHT22;57789;53.868;10.728;2023-06-22T00:19:21;17.80;99.90
70368;DHT22;57789;53.868;10.728;2023-06-22T00:21:47;18.00;99.90
70368;DHT22;57789;53.868;10.728;2023-06-22T00:24:21;18.10;99.90
70368;DHT22;57789;53.868;10.728;2023-06-22T00:26:48;18.30;99.90
70368;DHT22;57789;53.868;10.728;2023-06-22T00:29:15;18.30;99.90
70368;DHT22;57789;53.868;10.728;2023-06-22T00:31:42;18.50;99.90
70368;DHT22;57789;53.868;10.728;2023-06-22T00:34:08;18.50;99.90
70368;DHT22;57789;53.868;10.728;2023-06-22T00:36:35;18.40;99.90
70368;DHT22;57789;53.868;10.728;2023-06-22T00:39:01;18.20;99.90
70368;DHT22;57789;53.868;10.728;2023-06-22T00:41:27;18.20;99.90
70368;DHT22;57789;53.868;10.728;2023-06-22T00:43:56;18.20;99.90
70368;DHT22;57789;53.868;10.728;2023-06-22T00:46:23;18.20;99.90
70368;DHT22;57789;53.868;10.728;2023-06-22T00:48:50;18.20;99.90
70368;DHT22;57789;53.868;10.728;2023-06-22T00:51:17;18.20;99.90
70368;DHT22;57789;53.868;10.728;2023-06-22T00:53:43;18.30;99.90
70368;DHT22;57789;53.868;10.728;2023-06-22T00:56:09;18.30;99.90
70368;DHT22;57789;53.868;10.728;2023-06-22T00:58:38;18.30;99.90
70368;DHT22;57789;53.868;10.728;2023-06-22T01:01:07;18.40;99.90
70368;DHT22;57789;53.868;10.728;2023-06-22T01:03:33;18.40;99.90
70368;DHT22;57789;53.868;10.728;2023-06-22T01:06:15;18.30;99.90
70368;DHT22;57789;53.868;10.728;2023-06-22T01:08:57;18.30;99.90
70368;DHT22;57789;53.868;10.728;2023-06-22T01:11:39;18.20;99.90
70368;DHT22;57789;53.868;10.728;2023-06-22T01:17:13;17.80;99.90
70368;DHT22;57789;53.868;10.728;2023-06-22T01:22:21;17.50;99.90
70368;DHT22;57789;53.868;10.728;2023-06-22T01:30:33;17.50;99.90
70368;DHT22;57789;53.868;10.728;2023-06-22T01:33:01;17.60;99.90
70368;DHT22;57789;53.868;10.728;2023-06-22T01:35:28;17.70;99.90
70368;DHT22;57789;53.868;10.728;2023-06-22T01:37:55;17.70;99.90
70368;DHT22;57789;53.868;10.728;2023-06-22T01:40:28;17.70;99.90
70368;DHT22;57789;53.868;10.728;2023-06-22T01:42:55;17.70;99.90
70368;DHT22;57789;53.868;10.728;2023-06-22T01:45:21;17.80;99.90
70368;DHT22;57789;53.868;10.728;2023-06-22T01:47:47;17.70;99.90
70368;DHT22;57789;53.868;10.728;2023-06-22T01:50:15;17.70;99.90
70368;DHT22;57789;53.868;10.728;2023-06-22T01:52:41;17.60;99.90
70368;DHT22;57789;53.868;10.728;2023-06-22T01:55:12;17.50;99.90
70368;DHT22;57789;53.868;10.728;2023-06-22T01:57:39;17.60;99.90
70368;DHT22;57789;53.868;10.728;2023-06-22T02:00:09;17.60;99.90
70368;DHT22;57789;53.868;10.728;2023-06-22T02:02:47;17.50;99.90
70368;DHT22;57789;53.868;10.728;2023-06-22T02:05:18;17.60;99.90
70368;DHT22;57789;53.868;10.728;2023-06-22T02:08:17;17.60;99.90
70368;DHT22;57789;53.868;10.728;2023-06-22T02:10:51;17.60;99.90
70368;DHT22;57789;53.868;10.728;2023-06-22T02:13:18;17.60;99.90
70368;DHT22;57789;53.868;10.728;2023-06-22T02:15:46;17.70;99.90
70368;DHT22;57789;53.868;10.728;2023-06-22T02:18:13;17.70;99.90
70368;DHT22;57789;53.868;10.728;2023-06-22T02:20:39;17.70;99.90
70368;DHT22;57789;53.868;10.728;2023-06-22T02:23:06;17.60;99.90
70368;DHT22;57789;53.868;10.728;2023-06-22T02:25:33;17.60;99.90
70368;DHT22;57789;53.868;10.728;2023-06-22T02:27:59;17.50;99.90
70368;DHT22;57789;53.868;10.728;2023-06-22T02:30:25;17.50;99.90
70368;DHT22;57789;53.868;10.728;2023-06-22T02:32:50;17.50;99.90
70368;DHT22;57789;53.868;10.728;2023-06-22T02:35:26;17.50;99.90
70368;DHT22;57789;53.868;10.728;2023-06-22T02:37:52;17.50;99.90
70368;DHT22;57789;53.868;10.728;2023-06-22T02:40:18;17.60;99.90
70368;DHT22;57789;53.868;10.728;2023-06-22T02:42:44;17.70;99.90
70368;DHT22;57789;53.868;10.728;2023-06-22T02:45:10;17.70;99.90
70368;DHT22;57789;53.868;10.728;2023-06-22T02:47:35;17.60;99.90
70368;DHT22;57789;53.868;10.728;2023-06-22T02:50:01;17.60;99.90
70368;DHT22;57789;53.868;10.728;2023-06-22T02:52:27;17.50;99.90
70368;DHT22;57789;53.868;10.728;2023-06-22T02:54:53;17.40;99.90
70368;DHT22;57789;53.868;10.728;2023-06-22T02:57:18;17.40;99.90
70368;DHT22;57789;53.868;10.728;2023-06-22T02:59:44;17.50;99.90
70368;DHT22;57789;53.868;10.728;2023-06-22T03:02:10;17.50;99.90
70368;DHT22;57789;53.868;10.728;2023-06-22T03:04:36;17.50;99.90
70368;DHT22;57789;53.868;10.728;2023-06-22T03:07:02;17.30;99.90
70368;DHT22;57789;53.868;10.728;2023-06-22T03:09:28;17.00;99.90
70368;DHT22;57789;53.868;10.728;2023-06-22T03:11:54;16.90;99.90
70368;DHT22;57789;53.868;10.728;2023-06-22T03:14:20;17.00;99.90
70368;DHT22;57789;53.868;10.728;2023-06-22T03:16:46;17.00;99.90
70368;DHT22;57789;53.868;10.728;2023-06-22T03:19:12;17.10;99.90
70368;DHT22;57789;53.868;10.728;2023-06-22T03:21:38;17.20;99.90
70368;DHT22;57789;53.868;10.728;2023-06-22T03:24:05;17.20;99.90
70368;DHT22;57789;53.868;10.728;2023-06-22T03:26:31;17.10;99.90
70368;DHT22;57789;53.868;10.728;2023-06-22T03:28:57;17.10;99.90
70368;DHT22;57789;53.868;10.728;2023-06-22T03:31:23;16.90;99.90
70368;DHT22;57789;53.868;10.728;2023-06-22T03:33:50;16.90;99.90
70368;DHT22;57789;53.868;10.728;2023-06-22T03:36:17;16.80;99.90
70368;DHT22;57789;53.868;10.728;2023-06-22T03:38:46;16.80;99.90
70368;DHT22;57789;53.868;10.728;2023-06-22T03:41:12;16.70;99.90
70368;DHT22;57789;53.868;10.728;2023-06-22T03:43:38;16.80;99.90
70368;DHT22;57789;53.868;10.728;2023-06-22T03:46:04;16.80;99.90
70368;DHT22;57789;53.868;10.728;2023-06-22T03:48:30;16.80;99.90
70368;DHT22;57789;53.868;10.728;2023-06-22T03:50:55;16.90;99.90
70368;DHT22;57789;53.868;10.728;2023-06-22T03:53:21;17.00;99.90
70368;DHT22;57789;53.868;10.728;2023-06-22T03:55:53;17.10;99.90
70368;DHT22;57789;53.868;10.728;2023-06-22T03:58:20;17.20;99.90
70368;DHT22;57789;53.868;10.728;2023-06-22T04:00:50;17.30;99.90
70368;DHT22;57789;53.868;10.728;2023-06-22T04:03:16;17.20;99.90
70368;DHT22;57789;53.868;10.728;2023-06-22T04:05:44;17.30;99.90
70368;DHT22;57789;53.868;10.728;2023-06-22T04:08:11;17.30;99.90
70368;DHT22;57789;53.868;10.728;2023-06-22T04:10:37;17.20;99.90
70368;DHT22;57789;53.868;10.728;2023-06-22T04:13:03;17.10;99.90
70368;DHT22;57789;53.868;10.728;2023-06-22T04:15:29;17.10;99.90
70368;DHT22;57789;53.868;10.728;2023-06-22T04:17:55;17.30;99.90
70368;DHT22;57789;53.868;10.728;2023-06-22T04:20:21;17.50;99.90
70368;DHT22;57789;53.868;10.728;2023-06-22T04:22:47;17.50;99.90
70368;DHT22;57789;53.868;10.728;2023-06-22T04:25:13;17.60;99.90
70368;DHT22;57789;53.868;10.728;2023-06-22T04:27:39;17.70;99.90
70368;DHT22;57789;53.868;10.728;2023-06-22T04:30:08;17.60;99.90
70368;DHT22;57789;53.868;10.728;2023-06-22T04:32:35;17.70;99.90
70368;DHT22;57789;53.868;10.728;2023-06-22T04:35:03;17.80;99.90
70368;DHT22;57789;53.868;10.728;2023-06-22T04:37:30;17.90;99.90
70368;DHT22;57789;53.868;10.728;2023-06-22T04:39:56;18.10;99.90
70368;DHT22;57789;53.868;10.728;2023-06-22T04:42:22;18.10;99.90
70368;DHT22;57789;53.868;10.728;2023-06-22T04:44:48;18.10;99.90
70368;DHT22;57789;53.868;10.728;2023-06-22T04:47:14;18.20;99.90
70368;DHT22;57789;53.868;10.728;2023-06-22T04:49:40;18.10;99.90
70368;DHT22;57789;53.868;10.728;2023-06-22T04:52:10;18.10;99.90
70368;DHT22;57789;53.868;10.728;2023-06-22T04:54:37;18.10;99.90
70368;DHT22;57789;53.868;10.728;2023-06-22T04:57:06;18.00;99.90
70368;DHT22;57789;53.868;10.728;2023-06-22T04:59:36;17.90;99.90
70368;DHT22;57789;53.868;10.728;2023-06-22T05:02:02;17.90;99.90
70368;DHT22;57789;53.868;10.728;2023-06-22T05:04:29;18.00;99.90
70368;DHT22;57789;53.868;10.728;2023-06-22T05:06:59;18.10;99.90
70368;DHT22;57789;53.868;10.728;2023-06-22T05:09:26;18.20;99.90
70368;DHT22;57789;53.868;10.728;2023-06-22T05:11:52;18.40;99.90
70368;DHT22;57789;53.868;10.728;2023-06-22T05:14:18;18.60;99.90
70368;DHT22;57789;53.868;10.728;2023-06-22T05:16:44;18.70;99.90
70368;DHT22;57789;53.868;10.728;2023-06-22T05:19:11;18.80;99.90
70368;DHT22;57789;53.868;10.728;2023-06-22T05:21:37;18.70;99.90
70368;DHT22;57789;53.868;10.728;2023-06-22T05:24:04;18.80;99.90
70368;DHT22;57789;53.868;10.728;2023-06-22T05:26:32;19.00;99.90
70368;DHT22;57789;53.868;10.728;2023-06-22T05:28:59;19.10;99.90
70368;DHT22;57789;53.868;10.728;2023-06-22T05:31:26;19.30;99.90
70368;DHT22;57789;53.868;10.728;2023-06-22T05:33:53;19.40;99.90
70368;DHT22;57789;53.868;10.728;2023-06-22T05:36:19;19.50;99.90
70368;DHT22;57789;53.868;10.728;2023-06-22T05:38:47;19.50;99.90
70368;DHT22;57789;53.868;10.728;2023-06-22T05:41:13;19.60;99.90
70368;DHT22;57789;53.868;10.728;2023-06-22T05:43:39;19.70;99.90
70368;DHT22;57789;53.868;10.728;2023-06-22T05:46:05;19.70;99.90
70368;DHT22;57789;53.868;10.728;2023-06-22T05:48:31;19.70;99.90
70368;DHT22;57789;53.868;10.728;2023-06-22T05:50:57;19.80;99.90
70368;DHT22;57789;53.868;10.728;2023-06-22T05:53:23;20.00;99.90
70368;DHT22;57789;53.868;10.728;2023-06-22T05:55:52;20.10;99.90
70368;DHT22;57789;53.868;10.728;2023-06-22T05:58:17;20.20;99.90
70368;DHT22;57789;53.868;10.728;2023-06-22T06:00:43;20.10;99.90
70368;DHT22;57789;53.868;10.728;2023-06-22T06:03:10;20.20;99.90
70368;DHT22;57789;53.868;10.728;2023-06-22T06:05:36;20.30;99.90
70368;DHT22;57789;53.868;10.728;2023-06-22T06:08:05;20.20;99.90
70368;DHT22;57789;53.868;10.728;2023-06-22T06:10:32;20.20;99.90
70368;DHT22;57789;53.868;10.728;2023-06-22T06:12:58;20.30;99.90
70368;DHT22;57789;53.868;10.728;2023-06-22T06:15:24;20.40;99.90
70368;DHT22;57789;53.868;10.728;2023-06-22T06:17:51;20.40;99.90
70368;DHT22;57789;53.868;10.728;2023-06-22T06:20:22;20.50;99.90
70368;DHT22;57789;53.868;10.728;2023-06-22T06:22:48;20.50;99.90
70368;DHT22;57789;53.868;10.728;2023-06-22T06:25:15;20.60;99.90
70368;DHT22;57789;53.868;10.728;2023-06-22T06:27:46;20.60;99.90
70368;DHT22;57789;53.868;10.728;2023-06-22T06:30:13;20.80;99.90
70368;DHT22;57789;53.868;10.728;2023-06-22T06:32:39;20.80;99.90
70368;DHT22;57789;53.868;10.728;2023-06-22T06:35:09;20.90;99.90
70368;DHT22;57789;53.868;10.728;2023-06-22T06:37:38;20.90;99.90
70368;DHT22;57789;53.868;10.728;2023-06-22T06:40:08;20.90;99.90
70368;DHT22;57789;53.868;10.728;2023-06-22T06:42:41;21.00;99.90
70368;DHT22;57789;53.868;10.728;2023-06-22T06:45:28;21.20;99.90
70368;DHT22;57789;53.868;10.728;2023-06-22T06:47:54;21.20;99.90
70368;DHT22;57789;53.868;10.728;2023-06-22T06:50:20;21.40;99.90
70368;DHT22;57789;53.868;10.728;2023-06-22T06:52:46;21.50;99.90
70368;DHT22;57789;53.868;10.728;2023-06-22T06:55:12;21.40;99.90
70368;DHT22;57789;53.868;10.728;2023-06-22T06:57:40;21.50;99.90
70368;DHT22;57789;53.868;10.728;2023-06-22T07:00:11;21.60;99.90
70368;DHT22;57789;53.868;10.728;2023-06-22T07:02:44;21.60;99.90
70368;DHT22;57789;53.868;10.728;2023-06-22T07:05:12;21.60;99.90
70368;DHT22;57789;53.868;10.728;2023-06-22T07:07:38;21.60;99.90
70368;DHT22;57789;53.868;10.728;2023-06-22T07:10:10;21.50;99.90
70368;DHT22;57789;53.868;10.728;2023-06-22T07:12:37;21.50;99.90
70368;DHT22;57789;53.868;10.728;2023-06-22T07:15:12;21.40;99.90
70368;DHT22;57789;53.868;10.728;2023-06-22T07:17:41;21.40;99.90
70368;DHT22;57789;53.868;10.728;2023-06-22T07:20:08;21.40;99.90
70368;DHT22;57789;53.868;10.728;2023-06-22T07:22:42;21.40;99.90
70368;DHT22;57789;53.868;10.728;2023-06-22T07:25:21;21.30;99.90
70368;DHT22;57789;53.868;10.728;2023-06-22T07:28:03;21.40;99.90
70368;DHT22;57789;53.868;10.728;2023-06-22T07:30:30;21.60;99.90
70368;DHT22;57789;53.868;10.728;2023-06-22T07:33:03;21.60;99.90
70368;DHT22;57789;53.868;10.728;2023-06-22T07:35:32;21.70;99.90
70368;DHT22;57789;53.868;10.728;2023-06-22T07:37:59;21.80;99.90
70368;DHT22;57789;53.868;10.728;2023-06-22T07:40:30;22.00;99.90
70368;DHT22;57789;53.868;10.728;2023-06-22T07:42:56;22.10;99.90
70368;DHT22;57789;53.868;10.728;2023-06-22T07:45:22;22.20;99.90
70368;DHT22;57789;53.868;10.728;2023-06-22T07:47:51;22.30;99.90
70368;DHT22;57789;53.868;10.728;2023-06-22T07:50:17;22.40;99.90
70368;DHT22;57789;53.868;10.728;2023-06-22T07:52:52;22.50;99.90
70368;DHT22;57789;53.868;10.728;2023-06-22T07:55:18;22.70;99.90
70368;DHT22;57789;53.868;10.728;2023-06-22T07:57:46;22.70;99.90
70368;DHT22;57789;53.868;10.728;2023-06-22T08:00:22;22.90;99.90
70368;DHT22;57789;53.868;10.728;2023-06-22T08:02:48;23.10;99.90
70368;DHT22;57789;53.868;10.728;2023-06-22T08:05:15;23.30;99.90
70368;DHT22;57789;53.868;10.728;2023-06-22T08:07:41;23.40;99.90
70368;DHT22;57789;53.868;10.728;2023-06-22T08:10:11;23.50;99.90
70368;DHT22;57789;53.868;10.728;2023-06-22T08:12:37;23.50;99.90
70368;DHT22;57789;53.868;10.728;2023-06-22T08:15:12;23.60;99.90
70368;DHT22;57789;53.868;10.728;2023-06-22T08:17:38;23.50;99.90
70368;DHT22;57789;53.868;10.728;2023-06-22T08:20:05;23.70;99.90
70368;DHT22;57789;53.868;10.728;2023-06-22T08:22:41;23.60;99.90
70368;DHT22;57789;53.868;10.728;2023-06-22T08:25:07;23.70;99.90
70368;DHT22;57789;53.868;10.728;2023-06-22T08:27:34;23.70;99.90
70368;DHT22;57789;53.868;10.728;2023-06-22T08:30:01;23.60;99.90
70368;DHT22;57789;53.868;10.728;2023-06-22T08:32:34;23.70;99.90
70368;DHT22;57789;53.868;10.728;2023-06-22T08:34:59;23.80;99.90
70368;DHT22;57789;53.868;10.728;2023-06-22T08:37:25;23.80;99.90
70368;DHT22;57789;53.868;10.728;2023-06-22T08:39:59;23.80;99.90
70368;DHT22;57789;53.868;10.728;2023-06-22T08:42:27;23.80;99.90
70368;DHT22;57789;53.868;10.728;2023-06-22T08:44:52;23.80;99.90
70368;DHT22;57789;53.868;10.728;2023-06-22T08:47:19;23.60;99.90
70368;DHT22;57789;53.868;10.728;2023-06-22T08:49:45;23.50;99.90
70368;DHT22;57789;53.868;10.728;2023-06-22T08:52:11;23.50;99.90
70368;DHT22;57789;53.868;10.728;2023-06-22T08:54:37;23.60;99.90
70368;DHT22;57789;53.868;10.728;2023-06-22T08:57:03;23.80;99.90
70368;DHT22;57789;53.868;10.728;2023-06-22T08:59:29;24.10;99.90
70368;DHT22;57789;53.868;10.728;2023-06-22T09:01:55;24.20;99.90
70368;DHT22;57789;53.868;10.728;2023-06-22T09:04:20;24.30;99.90
70368;DHT22;57789;53.868;10.728;2023-06-22T09:06:48;24.30;99.90
70368;DHT22;57789;53.868;10.728;2023-06-22T09:09:16;24.50;99.90
70368;DHT22;57789;53.868;10.728;2023-06-22T09:11:42;24.50;99.90
70368;DHT22;57789;53.868;10.728;2023-06-22T09:14:17;24.50;99.90
70368;DHT22;57789;53.868;10.728;2023-06-22T09:16:51;24.80;99.90
70368;DHT22;57789;53.868;10.728;2023-06-22T09:19:17;24.70;99.90
70368;DHT22;57789;53.868;10.728;2023-06-22T09:21:44;24.70;99.90
70368;DHT22;57789;53.868;10.728;2023-06-22T09:24:10;25.10;99.90
70368;DHT22;57789;53.868;10.728;2023-06-22T09:26:36;25.30;99.90
70368;DHT22;57789;53.868;10.728;2023-06-22T09:29:04;25.50;99.90
70368;DHT22;57789;53.868;10.728;2023-06-22T09:31:31;25.80;99.90
70368;DHT22;57789;53.868;10.728;2023-06-22T09:33:56;26.30;99.90
70368;DHT22;57789;53.868;10.728;2023-06-22T09:36:22;26.50;99.90
70368;DHT22;57789;53.868;10.728;2023-06-22T09:38:49;26.90;99.90
70368;DHT22;57789;53.868;10.728;2023-06-22T09:41:20;26.60;99.90
70368;DHT22;57789;53.868;10.728;2023-06-22T09:43:46;26.80;99.90
70368;DHT22;57789;53.868;10.728;2023-06-22T09:46:15;27.10;99.90
70368;DHT22;57789;53.868;10.728;2023-06-22T09:48:41;27.30;99.90
70368;DHT22;57789;53.868;10.728;2023-06-22T09:51:07;27.50;99.90
70368;DHT22;57789;53.868;10.728;2023-06-22T09:53:41;26.80;99.90
70368;DHT22;57789;53.868;10.728;2023-06-22T09:56:07;26.40;99.90
70368;DHT22;57789;53.868;10.728;2023-06-22T09:58:36;26.10;99.90
70368;DHT22;57789;53.868;10.728;2023-06-22T10:01:02;25.60;99.90
70368;DHT22;57789;53.868;10.728;2023-06-22T10:03:29;25.70;99.90
70368;DHT22;57789;53.868;10.728;2023-06-22T10:05:54;25.70;99.90
70368;DHT22;57789;53.868;10.728;2023-06-22T10:08:20;25.80;99.90
70368;DHT22;57789;53.868;10.728;2023-06-22T10:10:52;26.00;99.90
70368;DHT22;57789;53.868;10.728;2023-06-22T10:13:18;26.30;99.90
70368;DHT22;57789;53.868;10.728;2023-06-22T10:15:44;26.50;99.90
70368;DHT22;57789;53.868;10.728;2023-06-22T10:18:21;26.60;99.90
70368;DHT22;57789;53.868;10.728;2023-06-22T10:20:51;26.90;99.90
70368;DHT22;57789;53.868;10.728;2023-06-22T10:23:21;26.60;99.90
70368;DHT22;57789;53.868;10.728;2023-06-22T10:25:55;26.40;99.90
70368;DHT22;57789;53.868;10.728;2023-06-22T10:28:23;26.20;99.90
70368;DHT22;57789;53.868;10.728;2023-06-22T10:30:49;26.60;99.90
70368;DHT22;57789;53.868;10.728;2023-06-22T10:33:16;26.90;99.90
70368;DHT22;57789;53.868;10.728;2023-06-22T10:35:42;27.20;99.90
70368;DHT22;57789;53.868;10.728;2023-06-22T10:38:08;27.30;99.90
70368;DHT22;57789;53.868;10.728;2023-06-22T10:40:34;27.20;99.90
70368;DHT22;57789;53.868;10.728;2023-06-22T10:43:00;27.30;99.90
70368;DHT22;57789;53.868;10.728;2023-06-22T10:45:26;27.00;99.90
70368;DHT22;57789;53.868;10.728;2023-06-22T10:47:59;26.90;99.90
70368;DHT22;57789;53.868;10.728;2023-06-22T10:50:25;27.00;99.90
70368;DHT22;57789;53.868;10.728;2023-06-22T10:52:51;27.40;99.90
70368;DHT22;57789;53.868;10.728;2023-06-22T10:55:17;27.40;99.90
70368;DHT22;57789;53.868;10.728;2023-06-22T10:57:52;27.50;99.90
70368;DHT22;57789;53.868;10.728;2023-06-22T11:00:18;27.60;99.90
70368;DHT22;57789;53.868;10.728;2023-06-22T11:02:44;27.60;99.90
70368;DHT22;57789;53.868;10.728;2023-06-22T11:05:10;27.50;99.90
70368;DHT22;57789;53.868;10.728;2023-06-22T11:07:37;27.50;99.90
70368;DHT22;57789;53.868;10.728;2023-06-22T11:10:03;27.40;99.90
70368;DHT22;57789;53.868;10.728;2023-06-22T11:12:29;27.40;99.90
70368;DHT22;57789;53.868;10.728;2023-06-22T11:14:55;27.70;99.90
70368;DHT22;57789;53.868;10.728;2023-06-22T11:17:33;27.80;99.90
70368;DHT22;57789;53.868;10.728;2023-06-22T11:20:11;27.80;99.90
70368;DHT22;57789;53.868;10.728;2023-06-22T11:22:38;27.80;99.90
70368;DHT22;57789;53.868;10.728;2023-06-22T11:25:05;27.90;99.90
70368;DHT22;57789;53.868;10.728;2023-06-22T11:27:31;27.90;99.90
70368;DHT22;57789;53.868;10.728;2023-06-22T11:29:57;27.20;99.90
70368;DHT22;57789;53.868;10.728;2023-06-22T11:32:26;27.50;99.90
70368;DHT22;57789;53.868;10.728;2023-06-22T11:34:52;27.50;99.90
70368;DHT22;57789;53.868;10.728;2023-06-22T11:37:21;27.90;99.90
70368;DHT22;57789;53.868;10.728;2023-06-22T11:39:48;28.10;99.90
70368;DHT22;57789;53.868;10.728;2023-06-22T11:42:14;28.40;99.90
70368;DHT22;57789;53.868;10.728;2023-06-22T11:44:40;28.30;99.90
70368;DHT22;57789;53.868;10.728;2023-06-22T11:47:09;28.50;99.90
70368;DHT22;57789;53.868;10.728;2023-06-22T11:49:36;28.80;99.90
70368;DHT22;57789;53.868;10.728;2023-06-22T11:52:02;28.50;99.90
70368;DHT22;57789;53.868;10.728;2023-06-22T11:54:28;28.40;99.90
70368;DHT22;57789;53.868;10.728;2023-06-22T11:56:54;29.10;99.70
70368;DHT22;57789;53.868;10.728;2023-06-22T11:59:19;29.40;98.20
70368;DHT22;57789;53.868;10.728;2023-06-22T12:01:47;29.50;98.00
70368;DHT22;57789;53.868;10.728;2023-06-22T12:04:14;29.80;97.70
70368;DHT22;57789;53.868;10.728;2023-06-22T12:06:40;30.30;96.20
70368;DHT22;57789;53.868;10.728;2023-06-22T12:09:08;30.50;95.60
70368;DHT22;57789;53.868;10.728;2023-06-22T12:11:34;30.90;94.90
70368;DHT22;57789;53.868;10.728;2023-06-22T12:14:00;31.40;93.70
70368;DHT22;57789;53.868;10.728;2023-06-22T12:16:28;31.50;91.90
70368;DHT22;57789;53.868;10.728;2023-06-22T12:18:54;31.90;91.10
70368;DHT22;57789;53.868;10.728;2023-06-22T12:21:20;31.70;90.10
70368;DHT22;57789;53.868;10.728;2023-06-22T12:23:46;31.70;89.70
70368;DHT22;57789;53.868;10.728;2023-06-22T12:26:11;32.00;88.20
70368;DHT22;57789;53.868;10.728;2023-06-22T12:28:37;31.80;86.40
70368;DHT22;57789;53.868;10.728;2023-06-22T12:31:03;31.80;86.90
70368;DHT22;57789;53.868;10.728;2023-06-22T12:33:28;32.20;84.90
70368;DHT22;57789;53.868;10.728;2023-06-22T12:35:56;31.70;85.40
70368;DHT22;57789;53.868;10.728;2023-06-22T12:38:22;31.70;84.80
70368;DHT22;57789;53.868;10.728;2023-06-22T12:40:47;31.70;84.30
70368;DHT22;57789;53.868;10.728;2023-06-22T12:43:15;31.50;85.40
70368;DHT22;57789;53.868;10.728;2023-06-22T12:45:40;31.70;84.40
70368;DHT22;57789;53.868;10.728;2023-06-22T12:48:06;31.30;84.00
70368;DHT22;57789;53.868;10.728;2023-06-22T12:50:34;31.20;85.10
70368;DHT22;57789;53.868;10.728;2023-06-22T12:53:00;31.90;82.50
70368;DHT22;57789;53.868;10.728;2023-06-22T12:55:27;32.00;81.00
70368;DHT22;57789;53.868;10.728;2023-06-22T12:57:59;32.20;80.50
70368;DHT22;57789;53.868;10.728;2023-06-22T13:00:26;32.30;79.30
70368;DHT22;57789;53.868;10.728;2023-06-22T13:02:52;32.50;79.10
70368;DHT22;57789;53.868;10.728;2023-06-22T13:05:20;32.40;77.80
70368;DHT22;57789;53.868;10.728;2023-06-22T13:07:46;32.30;78.20
70368;DHT22;57789;53.868;10.728;2023-06-22T13:10:12;32.50;77.80
70368;DHT22;57789;53.868;10.728;2023-06-22T13:12:38;33.00;76.80
70368;DHT22;57789;53.868;10.728;2023-06-22T13:15:04;33.40;75.40
70368;DHT22;57789;53.868;10.728;2023-06-22T13:17:30;33.90;73.90
70368;DHT22;57789;53.868;10.728;2023-06-22T13:19:56;34.00;71.40
70368;DHT22;57789;53.868;10.728;2023-06-22T13:22:35;34.10;69.60
70368;DHT22;57789;53.868;10.728;2023-06-22T13:25:08;34.30;69.00
70368;DHT22;57789;53.868;10.728;2023-06-22T13:27:41;35.20;68.50
70368;DHT22;57789;53.868;10.728;2023-06-22T13:30:08;35.30;65.70
70368;DHT22;57789;53.868;10.728;2023-06-22T13:32:42;35.40;64.20
70368;DHT22;57789;53.868;10.728;2023-06-22T13:35:10;34.80;64.20
70368;DHT22;57789;53.868;10.728;2023-06-22T13:37:37;34.60;64.40
70368;DHT22;57789;53.868;10.728;2023-06-22T13:40:12;34.80;64.20
70368;DHT22;57789;53.868;10.728;2023-06-22T13:42:38;35.10;63.80
70368;DHT22;57789;53.868;10.728;2023-06-22T13:45:04;35.40;62.70
70368;DHT22;57789;53.868;10.728;2023-06-22T13:47:30;34.50;62.90
70368;DHT22;57789;53.868;10.728;2023-06-22T13:50:02;34.30;63.00
70368;DHT22;57789;53.868;10.728;2023-06-22T13:52:28;33.90;63.30
70368;DHT22;57789;53.868;10.728;2023-06-22T13:54:54;33.60;64.70
70368;DHT22;57789;53.868;10.728;2023-06-22T13:57:20;33.10;64.40
70368;DHT22;57789;53.868;10.728;2023-06-22T13:59:46;33.40;64.40
70368;DHT22;57789;53.868;10.728;2023-06-22T14:02:12;33.00;64.60
70368;DHT22;57789;53.868;10.728;2023-06-22T14:04:38;32.90;65.10
70368;DHT22;57789;53.868;10.728;2023-06-22T14:07:05;33.10;64.30
70368;DHT22;57789;53.868;10.728;2023-06-22T14:09:31;34.30;63.40
70368;DHT22;57789;53.868;10.728;2023-06-22T14:12:07;34.10;63.30
70368;DHT22;57789;53.868;10.728;2023-06-22T14:14:33;33.90;63.30
70368;DHT22;57789;53.868;10.728;2023-06-22T14:16:59;33.60;63.10
70368;DHT22;57789;53.868;10.728;2023-06-22T14:19:25;32.60;63.70
70368;DHT22;57789;53.868;10.728;2023-06-22T14:21:51;32.00;65.30
70368;DHT22;57789;53.868;10.728;2023-06-22T14:24:17;31.90;66.60
70368;DHT22;57789;53.868;10.728;2023-06-22T14:26:43;31.60;67.00
70368;DHT22;57789;53.868;10.728;2023-06-22T14:29:08;31.00;67.90
70368;DHT22;57789;53.868;10.728;2023-06-22T14:31:34;30.70;69.10
70368;DHT22;57789;53.868;10.728;2023-06-22T14:34:01;30.30;70.40
70368;DHT22;57789;53.868;10.728;2023-06-22T14:36:34;30.20;71.30
70368;DHT22;57789;53.868;10.728;2023-06-22T14:39:00;29.70;72.70
70368;DHT22;57789;53.868;10.728;2023-06-22T14:41:26;29.10;74.50
70368;DHT22;57789;53.868;10.728;2023-06-22T14:43:52;29.10;75.80
70368;DHT22;57789;53.868;10.728;2023-06-22T14:46:18;29.30;76.70
70368;DHT22;57789;53.868;10.728;2023-06-22T14:48:44;29.40;75.90
70368;DHT22;57789;53.868;10.728;2023-06-22T14:51:11;29.70;76.60
70368;DHT22;57789;53.868;10.728;2023-06-22T14:53:38;29.80;76.40
70368;DHT22;57789;53.868;10.728;2023-06-22T14:56:04;29.50;76.40
70368;DHT22;57789;53.868;10.728;2023-06-22T14:58:31;29.40;76.90
70368;DHT22;57789;53.868;10.728;2023-06-22T15:01:04;29.10;76.80
70368;DHT22;57789;53.868;10.728;2023-06-22T15:03:31;28.70;77.70
70368;DHT22;57789;53.868;10.728;2023-06-22T15:05:58;28.20;79.40
70368;DHT22;57789;53.868;10.728;2023-06-22T15:08:26;28.10;80.80
70368;DHT22;57789;53.868;10.728;2023-06-22T15:10:52;28.10;81.50
70368;DHT22;57789;53.868;10.728;2023-06-22T15:13:18;28.40;79.80
70368;DHT22;57789;53.868;10.728;2023-06-22T15:15:50;28.60;78.90
70368;DHT22;57789;53.868;10.728;2023-06-22T15:18:16;28.90;78.70
70368;DHT22;57789;53.868;10.728;2023-06-22T15:20:43;28.70;78.10
70368;DHT22;57789;53.868;10.728;2023-06-22T15:23:13;28.50;78.60
70368;DHT22;57789;53.868;10.728;2023-06-22T15:25:39;28.50;79.70
70368;DHT22;57789;53.868;10.728;2023-06-22T15:28:05;28.20;78.20
70368;DHT22;57789;53.868;10.728;2023-06-22T15:30:31;27.80;79.70